Time;durP1;ratioP1;P1;durP2;ratioP2;P2;SDS_P1;SDS_P2;PMS_P1;PMS_P2;Temp;Humidity;BMP_temperature;BMP_pressure;BME280_temperature;BME280_humidity;BME280_pressure;Samples;Min_cycle;Max_cycle;Signal;HPM_P1;HPM_P2
2021/10/11 00:00:35;;;;;;;32.60;18.50;;;;;;;;;;5008609;28;20319;-54
2021/10/11 00:03:00;;;;;;;38.17;20.35;;;;;;;;;;5019481;28;20033;-52
2021/10/11 00:05:26;;;;;;;38.08;20.42;;;;;;;;;;5011841;28;20033;-53
2021/10/11 00:07:51;;;;;;;41.97;21.98;;;;;;;;;;5019323;28;20041;-54
2021/10/11 00:10:19;;;;;;;41.80;22.73;;;;;;;;;;5014825;28;20025;-53
2021/10/11 00:12:48;;;;;;;44.42;22.67;;;;;;;;;;5011558;28;20042;-54
2021/10/11 00:15:13;;;;;;;40.35;21.73;;;;;;;;;;5013630;28;20116;-54
2021/10/11 00:17:38;;;;;;;43.92;21.83;;;;;;;;;;5016652;28;20108;-52
2021/10/11 00:20:04;;;;;;;44.22;23.02;;;;;;;;;;5014963;28;20494;-53
2021/10/11 00:22:29;;;;;;;44.05;22.85;;;;;;;;;;5008382;28;20770;-55
2021/10/11 00:24:54;;;;;;;43.20;22.42;;;;;;;;;;5014507;28;20036;-54
2021/10/11 00:27:19;;;;;;;36.78;20.20;;;;;;;;;;5021697;28;20044;-54
2021/10/11 00:29:45;;;;;;;33.92;20.45;;;;;;;;;;5009555;28;20060;-52
2021/10/11 00:32:10;;;;;;;41.00;21.90;;;;;;;;;;5016037;28;20038;-53
2021/10/11 00:34:35;;;;;;;41.42;20.90;;;;;;;;;;5015711;28;20091;-54
2021/10/11 00:37:01;;;;;;;36.67;19.83;;;;;;;;;;5036773;28;20404;-53
2021/10/11 00:39:26;;;;;;;42.72;21.05;;;;;;;;;;5014640;28;20115;-54
2021/10/11 00:41:51;;;;;;;38.00;20.80;;;;;;;;;;5014513;28;20049;-54
2021/10/11 00:44:16;;;;;;;45.63;22.77;;;;;;;;;;5007494;28;20034;-55
2021/10/11 00:46:42;;;;;;;38.13;21.20;;;;;;;;;;5010426;28;20044;-54
2021/10/11 00:49:07;;;;;;;34.58;18.25;;;;;;;;;;5012215;28;20052;-52
2021/10/11 00:51:32;;;;;;;35.05;17.77;;;;;;;;;;5015537;28;20045;-53
2021/10/11 00:53:58;;;;;;;33.25;18.20;;;;;;;;;;5010137;28;20041;-53
2021/10/11 00:56:23;;;;;;;31.50;16.77;;;;;;;;;;5026496;28;20053;-54
2021/10/11 00:58:48;;;;;;;28.48;16.95;;;;;;;;;;5022168;28;20722;-53
2021/10/11 01:01:13;;;;;;;30.23;16.33;;;;;;;;;;5010136;28;20454;-52
2021/10/11 01:03:39;;;;;;;38.20;19.70;;;;;;;;;;5017214;28;20025;-54
2021/10/11 01:06:04;;;;;;;32.40;19.15;;;;;;;;;;5008809;28;20064;-54
2021/10/11 01:08:30;;;;;;;31.52;19.00;;;;;;;;;;5014066;28;20052;-52
2021/10/11 01:10:55;;;;;;;35.80;19.30;;;;;;;;;;5011322;28;20137;-52
2021/10/11 01:13:21;;;;;;;38.35;21.08;;;;;;;;;;5010904;28;20025;-54
2021/10/11 01:15:46;;;;;;;43.47;22.63;;;;;;;;;;5015931;28;20045;-53
2021/10/11 01:18:11;;;;;;;38.67;19.88;;;;;;;;;;5014500;28;20483;-54
2021/10/11 01:20:36;;;;;;;29.30;17.77;;;;;;;;;;5019734;28;20099;-54
2021/10/11 01:23:02;;;;;;;31.30;17.85;;;;;;;;;;5012954;28;20129;-52
2021/10/11 01:25:27;;;;;;;28.63;17.05;;;;;;;;;;5033538;28;20133;-52
2021/10/11 01:27:52;;;;;;;29.55;17.10;;;;;;;;;;5015469;28;20337;-54
2021/10/11 01:30:19;;;;;;;37.58;19.30;;;;;;;;;;5012068;28;20030;-54
2021/10/11 01:32:47;;;;;;;39.90;20.13;;;;;;;;;;5011673;28;20033;-54
2021/10/11 01:35:13;;;;;;;31.90;18.92;;;;;;;;;;5009595;28;20087;-54
2021/10/11 01:37:38;;;;;;;34.90;18.95;;;;;;;;;;5006613;28;20033;-54
2021/10/11 01:40:04;;;;;;;31.35;18.58;;;;;;;;;;5010564;28;20026;-54
2021/10/11 01:42:29;;;;;;;33.63;18.70;;;;;;;;;;5006866;28;20636;-54
2021/10/11 01:44:54;;;;;;;32.10;18.52;;;;;;;;;;5006588;28;20037;-54
2021/10/11 01:47:21;;;;;;;32.67;18.65;;;;;;;;;;5006585;28;20034;-52
2021/10/11 01:49:46;;;;;;;32.22;18.38;;;;;;;;;;5025552;28;20399;-55
2021/10/11 01:52:11;;;;;;;30.13;18.25;;;;;;;;;;5022526;28;20057;-55
2021/10/11 01:54:37;;;;;;;28.67;17.17;;;;;;;;;;5007204;28;20014;-54
2021/10/11 01:57:02;;;;;;;33.95;17.48;;;;;;;;;;5020425;28;20098;-55
2021/10/11 01:59:27;;;;;;;39.55;19.95;;;;;;;;;;5007888;28;20029;-53
2021/10/11 02:01:52;;;;;;;37.90;20.15;;;;;;;;;;5018034;28;20518;-54
2021/10/11 02:04:18;;;;;;;32.70;17.60;;;;;;;;;;5012090;28;20637;-55
2021/10/11 02:06:43;;;;;;;25.75;15.07;;;;;;;;;;5011938;28;20046;-55
2021/10/11 02:09:08;;;;;;;23.83;15.13;;;;;;;;;;5006097;28;20520;-55
2021/10/11 02:11:33;;;;;;;24.23;14.50;;;;;;;;;;5012748;28;20041;-54
2021/10/11 02:13:58;;;;;;;28.42;14.65;;;;;;;;;;5012245;28;20030;-55
2021/10/11 02:16:24;;;;;;;33.72;18.85;;;;;;;;;;5014010;28;20147;-53
2021/10/11 02:18:49;;;;;;;27.20;16.77;;;;;;;;;;5023263;28;20344;-54
2021/10/11 02:21:14;;;;;;;31.15;17.10;;;;;;;;;;5030551;28;20606;-55
2021/10/11 02:23:39;;;;;;;27.08;16.38;;;;;;;;;;5016730;28;20519;-56
2021/10/11 02:26:04;;;;;;;25.58;15.68;;;;;;;;;;5013058;28;20898;-54
2021/10/11 02:28:30;;;;;;;30.17;15.75;;;;;;;;;;5010436;28;20052;-55
2021/10/11 02:30:55;;;;;;;26.02;15.57;;;;;;;;;;5017154;28;20037;-54
2021/10/11 02:33:20;;;;;;;30.85;16.63;;;;;;;;;;5018259;28;20033;-52
2021/10/11 02:35:45;;;;;;;31.05;16.60;;;;;;;;;;5014687;28;20411;-54
2021/10/11 02:38:11;;;;;;;29.95;16.33;;;;;;;;;;5016739;28;20456;-54
2021/10/11 02:40:36;;;;;;;33.63;17.58;;;;;;;;;;5034374;28;20340;-54
2021/10/11 02:43:02;;;;;;;29.33;17.27;;;;;;;;;;5020442;28;20061;-54
2021/10/11 02:45:27;;;;;;;25.85;15.63;;;;;;;;;;5014558;28;20038;-52
2021/10/11 02:47:52;;;;;;;25.98;15.07;;;;;;;;;;5012417;28;20040;-54
2021/10/11 02:50:17;;;;;;;25.30;15.50;;;;;;;;;;5019154;28;20679;-54
2021/10/11 02:52:42;;;;;;;29.63;17.35;;;;;;;;;;5019727;28;20030;-58
2021/10/11 02:55:08;;;;;;;28.70;16.80;;;;;;;;;;5018429;28;20683;-55
2021/10/11 02:57:33;;;;;;;27.77;16.85;;;;;;;;;;5011203;28;20499;-55
2021/10/11 02:59:58;;;;;;;23.95;15.48;;;;;;;;;;5015771;28;20084;-55
2021/10/11 03:02:23;;;;;;;27.35;15.93;;;;;;;;;;5019979;28;20052;-54
2021/10/11 03:04:50;;;;;;;28.42;15.75;;;;;;;;;;5018840;28;20048;-54
2021/10/11 03:07:15;;;;;;;33.25;17.58;;;;;;;;;;5015661;28;20465;-54
2021/10/11 03:09:41;;;;;;;28.98;15.68;;;;;;;;;;5012745;28;20030;-55
2021/10/11 03:12:06;;;;;;;23.90;15.63;;;;;;;;;;5014482;28;20054;-53
2021/10/11 03:14:32;;;;;;;26.67;15.25;;;;;;;;;;5014158;28;20034;-58
2021/10/11 03:16:57;;;;;;;25.35;15.75;;;;;;;;;;5015550;28;20084;-55
2021/10/11 03:19:22;;;;;;;29.55;15.13;;;;;;;;;;5013602;28;20029;-54
2021/10/11 03:21:47;;;;;;;27.42;15.32;;;;;;;;;;5013855;28;20056;-53
2021/10/11 03:24:13;;;;;;;28.08;14.68;;;;;;;;;;5020852;28;20060;-52
2021/10/11 03:26:38;;;;;;;25.90;16.60;;;;;;;;;;5024120;28;20089;-52
2021/10/11 03:29:03;;;;;;;24.70;15.32;;;;;;;;;;5018714;28;20103;-54
2021/10/11 03:31:28;;;;;;;25.77;16.35;;;;;;;;;;5012895;28;20093;-55
2021/10/11 03:33:53;;;;;;;30.83;15.88;;;;;;;;;;5019935;28;20445;-52
2021/10/11 03:36:19;;;;;;;31.58;18.30;;;;;;;;;;5017123;28;20033;-54
2021/10/11 03:38:44;;;;;;;29.80;17.35;;;;;;;;;;5011936;28;20030;-54
2021/10/11 03:41:09;;;;;;;30.70;16.65;;;;;;;;;;5013526;28;20056;-54
2021/10/11 03:43:34;;;;;;;38.72;21.15;;;;;;;;;;5017534;28;20029;-54
2021/10/11 03:46:00;;;;;;;38.63;20.52;;;;;;;;;;5008619;28;20489;-54
2021/10/11 03:48:25;;;;;;;34.08;18.77;;;;;;;;;;5019541;28;20545;-53
2021/10/11 03:50:50;;;;;;;32.80;16.83;;;;;;;;;;5016245;28;20050;-54
2021/10/11 03:53:16;;;;;;;25.77;16.10;;;;;;;;;;5007217;28;20037;-54
2021/10/11 03:55:42;;;;;;;26.75;14.90;;;;;;;;;;5012755;28;20038;-54
2021/10/11 03:58:07;;;;;;;30.55;16.77;;;;;;;;;;5009909;28;20033;-54
2021/10/11 04:00:32;;;;;;;29.42;15.40;;;;;;;;;;5012673;28;20041;-52
2021/10/11 04:02:58;;;;;;;27.75;15.65;;;;;;;;;;5013653;28;20037;-53
2021/10/11 04:05:23;;;;;;;23.33;14.55;;;;;;;;;;5016616;28;20087;-52
2021/10/11 04:07:52;;;;;;;24.52;15.63;;;;;;;;;;5015924;28;20029;-54
2021/10/11 04:10:24;;;;;;;27.92;15.57;;;;;;;;;;5018154;28;20104;-54
2021/10/11 04:13:03;;;;;;;24.23;15.18;;;;;;;;;;4974431;28;20401;-54
2021/10/11 04:15:28;;;;;;;35.55;18.05;;;;;;;;;;4943140;28;20146;-55
2021/10/11 04:17:55;;;;;;;33.67;18.63;;;;;;;;;;4921229;29;20691;-55
2021/10/11 04:20:20;;;;;;;30.25;17.48;;;;;;;;;;4921504;28;20036;-54
2021/10/11 04:22:46;;;;;;;32.83;16.65;;;;;;;;;;4923142;29;20117;-54
2021/10/11 04:25:11;;;;;;;29.15;17.17;;;;;;;;;;4918905;29;20514;-55
2021/10/11 04:27:36;;;;;;;33.92;17.23;;;;;;;;;;4921616;29;20043;-54
2021/10/11 04:30:01;;;;;;;32.25;18.40;;;;;;;;;;4920727;28;20387;-54
2021/10/11 04:32:27;;;;;;;30.45;18.00;;;;;;;;;;4918951;29;20154;-54
2021/10/11 04:34:52;;;;;;;34.90;18.73;;;;;;;;;;4920926;29;20044;-54
2021/10/11 04:37:17;;;;;;;28.15;17.63;;;;;;;;;;4921819;29;20138;-53
2021/10/11 04:39:42;;;;;;;31.65;18.48;;;;;;;;;;4921110;28;20031;-54
2021/10/11 04:42:07;;;;;;;33.40;18.83;;;;;;;;;;4894877;28;20125;-54
2021/10/11 04:44:33;;;;;;;34.60;19.73;;;;;;;;;;4898052;29;20025;-55
2021/10/11 04:46:58;;;;;;;29.15;16.75;;;;;;;;;;4903151;29;20044;-54
2021/10/11 04:49:23;;;;;;;35.10;18.40;;;;;;;;;;4901826;29;20032;-54
2021/10/11 04:51:48;;;;;;;37.97;20.20;;;;;;;;;;4915486;29;20052;-53
2021/10/11 04:54:14;;;;;;;35.70;20.15;;;;;;;;;;4921978;29;20031;-54
2021/10/11 04:56:40;;;;;;;32.58;19.05;;;;;;;;;;4921969;29;20502;-54
2021/10/11 04:59:05;;;;;;;30.65;18.55;;;;;;;;;;4921660;29;20129;-51
2021/10/11 05:01:30;;;;;;;33.47;18.80;;;;;;;;;;4922260;29;20078;-54
2021/10/11 05:03:55;;;;;;;30.92;18.88;;;;;;;;;;4920315;29;20142;-54
2021/10/11 05:06:21;;;;;;;36.78;20.45;;;;;;;;;;4918527;29;20040;-53
2021/10/11 05:08:46;;;;;;;33.88;19.35;;;;;;;;;;4918509;29;20032;-54
2021/10/11 05:11:11;;;;;;;31.50;18.85;;;;;;;;;;4923517;29;20406;-54
2021/10/11 05:13:36;;;;;;;31.50;18.02;;;;;;;;;;4937420;28;20928;-53
2021/10/11 05:16:01;;;;;;;30.02;17.45;;;;;;;;;;4939441;28;20036;-54
2021/10/11 05:18:27;;;;;;;34.05;18.35;;;;;;;;;;4938319;29;20106;-55
2021/10/11 05:20:52;;;;;;;38.13;19.95;;;;;;;;;;4940086;28;20163;-54
2021/10/11 05:23:21;;;;;;;30.30;17.45;;;;;;;;;;4933259;29;20028;-54
2021/10/11 05:25:46;;;;;;;32.28;16.02;;;;;;;;;;4924975;29;20514;-54
2021/10/11 05:28:11;;;;;;;25.52;16.08;;;;;;;;;;4925493;29;20035;-55
2021/10/11 05:30:40;;;;;;;26.27;16.02;;;;;;;;;;4927418;29;20040;-54
2021/10/11 05:33:06;;;;;;;31.30;16.75;;;;;;;;;;4927356;29;20609;-55
2021/10/11 05:35:31;;;;;;;27.00;16.35;;;;;;;;;;4927707;29;20118;-57
2021/10/11 05:37:56;;;;;;;27.85;16.88;;;;;;;;;;4905521;29;20070;-53
2021/10/11 05:40:21;;;;;;;30.85;17.02;;;;;;;;;;4927378;29;20046;-53
2021/10/11 05:42:47;;;;;;;31.58;16.77;;;;;;;;;;4923911;29;20398;-54
2021/10/11 05:45:12;;;;;;;30.52;17.98;;;;;;;;;;4924875;29;20062;-56
2021/10/11 05:47:38;;;;;;;33.30;17.88;;;;;;;;;;4918978;29;20020;-56
2021/10/11 05:50:04;;;;;;;30.20;17.63;;;;;;;;;;4927062;29;20043;-56
2021/10/11 05:52:29;;;;;;;32.92;18.48;;;;;;;;;;4900611;29;20068;-56
2021/10/11 05:54:54;;;;;;;33.15;17.55;;;;;;;;;;4900710;29;20032;-56
2021/10/11 05:57:19;;;;;;;29.00;17.45;;;;;;;;;;4898715;29;20048;-53
2021/10/11 05:59:44;;;;;;;30.75;17.60;;;;;;;;;;4902376;29;20028;-56
2021/10/11 06:02:10;;;;;;;29.77;17.60;;;;;;;;;;4925118;29;20409;-56
2021/10/11 06:04:35;;;;;;;31.02;17.20;;;;;;;;;;4923036;29;20508;-54
2021/10/11 06:07:00;;;;;;;32.30;19.20;;;;;;;;;;4924100;28;20040;-54
2021/10/11 06:09:25;;;;;;;38.33;19.77;;;;;;;;;;4927906;29;20111;-55
2021/10/11 06:11:51;;;;;;;45.40;19.50;;;;;;;;;;4913251;29;20104;-54
2021/10/11 06:14:18;;;;;;;32.17;19.10;;;;;;;;;;4910333;29;20032;-54
2021/10/11 06:16:43;;;;;;;33.95;18.73;;;;;;;;;;4924992;28;20051;-56
2021/10/11 06:19:08;;;;;;;33.42;17.35;;;;;;;;;;4923116;29;20030;-55
2021/10/11 06:21:35;;;;;;;32.50;18.35;;;;;;;;;;4941692;28;20122;-56
2021/10/11 06:24:01;;;;;;;34.10;18.80;;;;;;;;;;4941513;28;20031;-56
2021/10/11 06:26:26;;;;;;;33.22;19.55;;;;;;;;;;4944535;28;20122;-56
2021/10/11 06:28:51;;;;;;;33.85;19.13;;;;;;;;;;4945954;29;20617;-55
2021/10/11 06:31:17;;;;;;;37.13;21.35;;;;;;;;;;4945299;28;20040;-57
2021/10/11 06:33:42;;;;;;;42.53;23.42;;;;;;;;;;4941292;28;20047;-56
2021/10/11 06:36:07;;;;;;;55.13;26.98;;;;;;;;;;4947774;28;20046;-55
2021/10/11 06:38:33;;;;;;;53.90;24.88;;;;;;;;;;4942660;28;20042;-53
2021/10/11 06:40:58;;;;;;;54.53;25.88;;;;;;;;;;4941176;28;20035;-56
2021/10/11 06:43:23;;;;;;;49.83;28.05;;;;;;;;;;4948313;28;20034;-54
2021/10/11 06:45:48;;;;;;;53.97;28.05;;;;;;;;;;4947507;28;20161;-58
2021/10/11 06:48:17;;;;;;;57.42;28.58;;;;;;;;;;4940972;28;20118;-55
2021/10/11 06:50:43;;;;;;;61.15;29.70;;;;;;;;;;4937164;28;20467;-55
2021/10/11 06:53:08;;;;;;;65.13;30.92;;;;;;;;;;4937255;28;20107;-55
2021/10/11 06:55:33;;;;;;;60.42;28.15;;;;;;;;;;4946302;28;20478;-56
2021/10/11 06:57:58;;;;;;;52.15;29.00;;;;;;;;;;4947285;28;20089;-55
2021/10/11 07:00:24;;;;;;;49.20;27.15;;;;;;;;;;4941524;28;20175;-55
2021/10/11 07:02:49;;;;;;;55.25;27.50;;;;;;;;;;4947540;28;20367;-55
2021/10/11 07:05:16;;;;;;;54.00;26.05;;;;;;;;;;4940380;28;20167;-56
2021/10/11 07:07:41;;;;;;;49.78;26.50;;;;;;;;;;4946754;28;20530;-56
2021/10/11 07:10:07;;;;;;;50.45;26.42;;;;;;;;;;4944967;28;20034;-56
2021/10/11 07:12:32;;;;;;;46.45;24.05;;;;;;;;;;4947112;28;20062;-56
2021/10/11 07:14:57;;;;;;;43.30;23.50;;;;;;;;;;4945899;29;20039;-57
2021/10/11 07:17:23;;;;;;;47.67;23.65;;;;;;;;;;4945796;28;20039;-57
2021/10/11 07:19:48;;;;;;;45.28;23.60;;;;;;;;;;4957634;28;20019;-55
2021/10/11 07:22:14;;;;;;;46.17;24.63;;;;;;;;;;4940512;28;20035;-56
2021/10/11 07:24:40;;;;;;;45.53;23.38;;;;;;;;;;4942228;28;20020;-56
2021/10/11 07:27:05;;;;;;;47.53;24.42;;;;;;;;;;4937689;28;20049;-57
2021/10/11 07:29:30;;;;;;;52.70;24.67;;;;;;;;;;4947554;28;20038;-55
2021/10/11 07:31:55;;;;;;;49.63;23.73;;;;;;;;;;4946572;28;20522;-55
2021/10/11 07:34:22;;;;;;;51.38;26.27;;;;;;;;;;4940722;28;20023;-54
2021/10/11 07:36:47;;;;;;;50.42;22.98;;;;;;;;;;4936636;28;20047;-56
2021/10/11 07:39:13;;;;;;;43.03;24.50;;;;;;;;;;4940949;28;20031;-55
2021/10/11 07:41:38;;;;;;;49.17;23.63;;;;;;;;;;4940044;28;20513;-57
2021/10/11 07:44:03;;;;;;;45.80;23.83;;;;;;;;;;4945082;29;20031;-56
2021/10/11 07:46:29;;;;;;;44.55;25.00;;;;;;;;;;4943725;28;20039;-55
2021/10/11 07:48:54;;;;;;;47.00;23.85;;;;;;;;;;4944122;28;20042;-55
2021/10/11 07:51:19;;;;;;;43.00;24.02;;;;;;;;;;4939007;28;20844;-55
2021/10/11 07:53:44;;;;;;;51.08;26.80;;;;;;;;;;4945383;29;20042;-55
2021/10/11 07:56:10;;;;;;;50.75;26.63;;;;;;;;;;4946399;28;20140;-55
2021/10/11 07:58:35;;;;;;;65.25;30.23;;;;;;;;;;4951017;28;20079;-55
2021/10/11 08:01:00;;;;;;;51.28;26.25;;;;;;;;;;4943467;28;20122;-55
2021/10/11 08:03:26;;;;;;;53.17;26.42;;;;;;;;;;4945835;28;20031;-55
2021/10/11 08:05:51;;;;;;;56.63;30.27;;;;;;;;;;4945130;28;20225;-54
2021/10/11 08:08:17;;;;;;;63.85;34.95;;;;;;;;;;4946383;28;20033;-55
2021/10/11 08:10:44;;;;;;;61.33;34.08;;;;;;;;;;4945037;28;20118;-54
2021/10/11 08:13:09;;;;;;;57.00;32.75;;;;;;;;;;4943251;28;20404;-54
2021/10/11 08:15:34;;;;;;;64.63;33.95;;;;;;;;;;4943625;28;20518;-53
2021/10/11 08:18:00;;;;;;;65.32;34.70;;;;;;;;;;4943218;28;20808;-55
2021/10/11 08:20:25;;;;;;;62.55;35.00;;;;;;;;;;4945617;28;20526;-56
2021/10/11 08:22:50;;;;;;;57.75;31.25;;;;;;;;;;4943042;28;20473;-54
2021/10/11 08:25:16;;;;;;;55.83;31.92;;;;;;;;;;4946492;28;20026;-55
2021/10/11 08:27:41;;;;;;;53.60;30.50;;;;;;;;;;4941693;29;20046;-55
2021/10/11 08:30:07;;;;;;;54.63;28.60;;;;;;;;;;4941181;28;20053;-56
2021/10/11 08:32:32;;;;;;;55.50;29.65;;;;;;;;;;4950442;28;20039;-54
2021/10/11 08:34:58;;;;;;;59.60;31.55;;;;;;;;;;4944998;28;20030;-57
2021/10/11 08:37:23;;;;;;;66.47;32.88;;;;;;;;;;4946320;28;20396;-56
2021/10/11 08:39:49;;;;;;;61.17;31.58;;;;;;;;;;4936918;29;20034;-54
2021/10/11 08:42:15;;;;;;;55.30;31.70;;;;;;;;;;4942330;28;20044;-55
2021/10/11 08:44:40;;;;;;;51.55;28.85;;;;;;;;;;4936412;28;20031;-55
2021/10/11 08:47:07;;;;;;;55.75;30.42;;;;;;;;;;4942134;28;20611;-56
2021/10/11 08:49:32;;;;;;;56.83;31.50;;;;;;;;;;4944762;28;20579;-55
2021/10/11 08:51:57;;;;;;;58.05;32.28;;;;;;;;;;4946432;28;20055;-55
2021/10/11 08:54:23;;;;;;;56.90;30.52;;;;;;;;;;4940660;28;20102;-56
2021/10/11 08:56:48;;;;;;;63.20;33.45;;;;;;;;;;4940847;28;20126;-56
2021/10/11 08:59:13;;;;;;;71.40;35.85;;;;;;;;;;4948883;28;20187;-55
2021/10/11 09:01:39;;;;;;;61.53;35.05;;;;;;;;;;4948951;28;20035;-56
2021/10/11 09:04:16;;;;;;;69.80;35.63;;;;;;;;;;4947563;29;20027;-57
2021/10/11 09:06:46;;;;;;;58.78;32.70;;;;;;;;;;4946926;28;20582;-56
2021/10/11 09:09:12;;;;;;;54.40;30.13;;;;;;;;;;4947030;28;20023;-56
2021/10/11 09:11:37;;;;;;;57.22;31.63;;;;;;;;;;4948382;28;20106;-57
2021/10/11 09:14:03;;;;;;;51.42;28.45;;;;;;;;;;4948382;28;20173;-55
2021/10/11 09:16:34;;;;;;;56.13;28.75;;;;;;;;;;4954500;28;20043;-55
2021/10/11 09:19:08;;;;;;;50.80;28.40;;;;;;;;;;4948531;28;20078;-55
2021/10/11 09:21:34;;;;;;;54.47;27.33;;;;;;;;;;4959245;28;20039;-56
2021/10/11 09:24:09;;;;;;;50.90;28.00;;;;;;;;;;4945280;29;20573;-56
2021/10/11 09:26:44;;;;;;;52.05;27.73;;;;;;;;;;4945463;28;20035;-56
2021/10/11 09:29:09;;;;;;;46.53;26.13;;;;;;;;;;4947138;28;20023;-57
2021/10/11 09:31:40;;;;;;;44.67;25.80;;;;;;;;;;4947798;28;20082;-55
2021/10/11 09:34:05;;;;;;;;;;;;;;;;;;4943943;29;20533;-55
2021/10/11 09:36:30;;;;;;;49.63;27.23;;;;;;;;;;4940363;28;19915;-57
2021/10/11 09:38:58;;;;;;;53.67;26.15;;;;;;;;;;4946085;28;20118;-58
2021/10/11 09:41:24;;;;;;;92.95;51.50;;;;;;;;;;4939461;28;20187;-56
2021/10/11 09:43:49;;;;;;;46.25;25.15;;;;;;;;;;4940881;28;20427;-56
2021/10/11 09:46:15;;;;;;;51.03;26.45;;;;;;;;;;4951707;28;20043;-57
2021/10/11 09:48:54;;;;;;;47.50;25.48;;;;;;;;;;4943079;28;20023;-58
2021/10/11 09:51:24;;;;;;;43.42;24.60;;;;;;;;;;4943054;28;20110;-57
2021/10/11 09:53:51;;;;;;;47.72;25.38;;;;;;;;;;4942510;29;20267;-56
2021/10/11 09:56:17;;;;;;;46.45;25.73;;;;;;;;;;4947534;28;20135;-57
2021/10/11 09:58:42;;;;;;;43.78;25.60;;;;;;;;;;4948714;28;20118;-57
2021/10/11 10:01:07;;;;;;;52.67;26.65;;;;;;;;;;4944697;28;20039;-56
2021/10/11 10:03:34;;;;;;;47.90;25.60;;;;;;;;;;4946208;28;20027;-55
2021/10/11 10:05:59;;;;;;;49.60;24.00;;;;;;;;;;4943573;28;20039;-56
2021/10/11 10:08:28;;;;;;;50.10;24.17;;;;;;;;;;4948113;28;20031;-56
2021/10/11 10:10:54;;;;;;;47.63;25.67;;;;;;;;;;4947428;28;20058;-57
2021/10/11 10:13:19;;;;;;;46.70;23.15;;;;;;;;;;4938274;28;20027;-57
2021/10/11 10:15:45;;;;;;;40.90;22.70;;;;;;;;;;4939766;28;20038;-56
2021/10/11 10:18:11;;;;;;;40.78;22.48;;;;;;;;;;4944870;28;20039;-57
2021/10/11 10:20:37;;;;;;;38.35;20.17;;;;;;;;;;4947807;28;20067;-55
2021/10/11 10:23:02;;;;;;;43.42;21.27;;;;;;;;;;4941818;28;20166;-56
2021/10/11 10:25:28;;;;;;;43.70;21.23;;;;;;;;;;4930992;28;20065;-56
2021/10/11 10:27:56;;;;;;;37.90;19.10;;;;;;;;;;4951834;28;20460;-56
2021/10/11 10:30:22;;;;;;;35.40;18.65;;;;;;;;;;4938219;28;20035;-56
2021/10/11 10:32:56;;;;;;;40.38;17.70;;;;;;;;;;4938560;28;20047;-57
2021/10/11 10:35:22;;;;;;;32.42;17.98;;;;;;;;;;4943190;28;20106;-56
2021/10/11 10:37:47;;;;;;;38.10;16.65;;;;;;;;;;4941228;28;20328;-56
2021/10/11 10:40:13;;;;;;;33.53;16.35;;;;;;;;;;4947922;28;20035;-56
2021/10/11 10:42:38;;;;;;;34.08;15.77;;;;;;;;;;4941935;28;20029;-56
2021/10/11 10:45:12;;;;;;;23.45;12.70;;;;;;;;;;4946206;28;20023;-55
2021/10/11 10:47:38;;;;;;;26.20;13.52;;;;;;;;;;4946134;29;20024;-57
2021/10/11 10:50:24;;;;;;;27.77;12.60;;;;;;;;;;4941872;28;20194;-56
2021/10/11 10:52:52;;;;;;;29.98;14.57;;;;;;;;;;4948150;28;20039;-56
2021/10/11 10:55:17;;;;;;;34.58;14.60;;;;;;;;;;4943659;28;20032;-57
2021/10/11 10:57:43;;;;;;;28.70;13.90;;;;;;;;;;4944086;28;20039;-55
2021/10/11 11:00:16;;;;;;;26.50;13.00;;;;;;;;;;4946065;28;20020;-55
2021/10/11 11:02:45;;;;;;;29.58;13.32;;;;;;;;;;4945519;29;20023;-55
2021/10/11 11:05:11;;;;;;;25.50;11.32;;;;;;;;;;4944053;28;20138;-54
2021/10/11 11:07:39;;;;;;;33.60;13.75;;;;;;;;;;4946290;28;20015;-55
2021/10/11 11:10:15;;;;;;;22.98;11.57;;;;;;;;;;4942282;28;20119;-56
2021/10/11 11:12:50;;;;;;;27.55;12.77;;;;;;;;;;4943348;28;20094;-55
2021/10/11 11:15:24;;;;;;;27.67;11.30;;;;;;;;;;4937631;28;20023;-56
2021/10/11 11:17:49;;;;;;;24.52;11.77;;;;;;;;;;4939853;28;20023;-56
2021/10/11 11:20:20;;;;;;;25.27;12.85;;;;;;;;;;4946851;28;20015;-55
2021/10/11 11:22:45;;;;;;;24.50;11.55;;;;;;;;;;4942799;28;20019;-55
2021/10/11 11:25:10;;;;;;;28.95;13.00;;;;;;;;;;4942003;28;20034;-55
2021/10/11 11:27:37;;;;;;;28.40;12.20;;;;;;;;;;4940809;28;20143;-55
2021/10/11 11:30:06;;;;;;;23.77;10.35;;;;;;;;;;4945777;28;20086;-55
2021/10/11 11:32:32;;;;;;;26.63;11.38;;;;;;;;;;4935006;29;20038;-56
2021/10/11 11:34:58;;;;;;;15.55;9.40;;;;;;;;;;4942830;28;20031;-54
2021/10/11 11:37:23;;;;;;;20.25;10.68;;;;;;;;;;4940586;28;20486;-54
2021/10/11 11:39:48;;;;;;;27.30;10.30;;;;;;;;;;4944814;28;20027;-55
2021/10/11 11:42:13;;;;;;;16.08;9.20;;;;;;;;;;4944568;28;20100;-56
2021/10/11 11:44:40;;;;;;;14.40;7.75;;;;;;;;;;4937727;28;20034;-53
2021/10/11 11:47:09;;;;;;;21.45;11.95;;;;;;;;;;4939697;28;20138;-56
2021/10/11 11:49:35;;;;;;;19.00;8.83;;;;;;;;;;4941832;29;20114;-54
2021/10/11 11:52:07;;;;;;;16.85;7.15;;;;;;;;;;4954176;28;20406;-55
2021/10/11 11:54:33;;;;;;;14.23;8.07;;;;;;;;;;4953695;28;20294;-54
2021/10/11 11:56:58;;;;;;;20.27;8.75;;;;;;;;;;4943088;28;20807;-55
2021/10/11 11:59:23;;;;;;;15.63;5.22;;;;;;;;;;4944320;28;20026;-55
2021/10/11 12:01:49;;;;;;;12.27;5.13;;;;;;;;;;4943239;28;20086;-55
2021/10/11 12:04:14;;;;;;;10.68;5.97;;;;;;;;;;4939185;29;20051;-55
2021/10/11 12:06:39;;;;;;;15.35;4.95;;;;;;;;;;4942102;28;20050;-54
2021/10/11 12:09:05;;;;;;;14.82;4.43;;;;;;;;;;4937490;28;20027;-52
2021/10/11 12:11:31;;;;;;;12.25;4.15;;;;;;;;;;4950010;28;20059;-55
2021/10/11 12:13:59;;;;;;;9.35;3.85;;;;;;;;;;4946407;28;20062;-55
2021/10/11 12:16:26;;;;;;;16.95;4.57;;;;;;;;;;4944929;28;20501;-54
2021/10/11 12:18:52;;;;;;;15.80;4.95;;;;;;;;;;4940815;28;20172;-55
2021/10/11 12:21:24;;;;;;;13.68;4.50;;;;;;;;;;4950262;28;20133;-55
2021/10/11 12:23:50;;;;;;;15.27;5.95;;;;;;;;;;4944781;28;20118;-55
2021/10/11 12:26:15;;;;;;;21.30;6.20;;;;;;;;;;4942898;28;20135;-55
2021/10/11 12:28:54;;;;;;;16.45;8.25;;;;;;;;;;4941352;28;20110;-55
2021/10/11 12:31:20;;;;;;;20.70;6.45;;;;;;;;;;4948730;28;20043;-54
2021/10/11 12:33:45;;;;;;;18.92;7.50;;;;;;;;;;4947087;28;20023;-56
2021/10/11 12:36:12;;;;;;;12.75;4.78;;;;;;;;;;4947037;28;20122;-55
2021/10/11 12:38:38;;;;;;;10.05;4.50;;;;;;;;;;4944542;28;20031;-54
2021/10/11 12:41:07;;;;;;;15.07;8.18;;;;;;;;;;4949612;28;20043;-55
2021/10/11 12:43:32;;;;;;;14.77;4.60;;;;;;;;;;4941304;29;20949;-55
2021/10/11 12:46:03;;;;;;;14.75;4.57;;;;;;;;;;4945910;28;20082;-56
2021/10/11 12:48:28;;;;;;;16.48;4.43;;;;;;;;;;4947986;28;20034;-54
2021/10/11 12:50:54;;;;;;;12.80;3.95;;;;;;;;;;4949804;28;20043;-54
2021/10/11 12:53:24;;;;;;;13.48;3.60;;;;;;;;;;4949434;28;20031;-55
2021/10/11 12:55:49;;;;;;;;;;;;;;;;;;4953611;28;20039;-53
2021/10/11 12:58:14;;;;;;;13.80;3.33;;;;;;;;;;4952166;28;19924;-55
2021/10/11 13:00:40;;;;;;;14.48;3.40;;;;;;;;;;4949656;28;20041;-54
2021/10/11 13:03:07;;;;;;;12.15;3.03;;;;;;;;;;4947356;28;20023;-55
2021/10/11 13:05:32;;;;;;;14.07;3.13;;;;;;;;;;4954265;28;20540;-54
2021/10/11 13:07:58;;;;;;;18.63;3.40;;;;;;;;;;4948480;28;20035;-55
2021/10/11 13:10:23;;;;;;;15.30;3.00;;;;;;;;;;4948483;28;20042;-56
2021/10/11 13:12:48;;;;;;;15.98;3.22;;;;;;;;;;4950193;28;20039;-55
2021/10/11 13:15:14;;;;;;;10.48;3.03;;;;;;;;;;4949220;28;20762;-53
2021/10/11 13:17:39;;;;;;;12.18;3.17;;;;;;;;;;4953243;28;20030;-55
2021/10/11 13:20:05;;;;;;;15.13;3.65;;;;;;;;;;4944214;28;20118;-56
2021/10/11 13:22:31;;;;;;;14.57;3.90;;;;;;;;;;4950113;28;20111;-58
2021/10/11 13:24:57;;;;;;;17.88;3.55;;;;;;;;;;4950758;28;20138;-56
2021/10/11 13:27:22;;;;;;;11.43;3.30;;;;;;;;;;4951304;28;20035;-55
2021/10/11 13:33:15;;;;;;;15.60;3.53;;;;;;;;;;4950328;28;20094;-56
2021/10/11 13:44:40;;;;;;;16.75;3.25;;;;;;;;;;4952833;28;20057;-55
2021/10/11 14:29:30;;;;;;;7.32;2.50;;;;;;;;;;4950073;28;20026;-54
2021/10/11 15:59:00;;;;;;;10.68;2.40;;;;;;;;;;4940192;28;20509;-54
2021/10/11 16:01:26;;;;;;;11.48;2.70;;;;;;;;;;4945972;28;20167;-54
2021/10/11 16:03:51;;;;;;;11.93;2.80;;;;;;;;;;4938945;28;20486;-54
2021/10/11 16:06:17;;;;;;;15.52;5.57;;;;;;;;;;4944271;28;20062;-53
2021/10/11 16:08:43;;;;;;;12.88;3.50;;;;;;;;;;4944362;28;20015;-54
2021/10/11 16:11:08;;;;;;;17.55;5.50;;;;;;;;;;4945711;28;20043;-54
2021/10/11 16:13:33;;;;;;;13.75;3.83;;;;;;;;;;4947312;28;20023;-56
2021/10/11 16:15:58;;;;;;;11.90;2.70;;;;;;;;;;4946833;28;20576;-56
2021/10/11 16:18:29;;;;;;;13.50;3.28;;;;;;;;;;4946731;28;20034;-55
2021/10/11 16:20:55;;;;;;;11.82;3.33;;;;;;;;;;4945542;28;20118;-57
2021/10/11 16:23:20;;;;;;;9.80;3.38;;;;;;;;;;4937727;28;20043;-55
2021/10/11 16:25:45;;;;;;;11.50;3.40;;;;;;;;;;4944331;28;20036;-55
2021/10/11 16:28:11;;;;;;;11.93;4.43;;;;;;;;;;4939715;28;20027;-54
2021/10/11 16:30:37;;;;;;;15.18;3.90;;;;;;;;;;4938862;28;20027;-54
2021/10/11 16:33:02;;;;;;;20.42;5.70;;;;;;;;;;4946289;28;20694;-56
2021/10/11 16:35:27;;;;;;;10.90;3.35;;;;;;;;;;4942689;28;20054;-54